createdAt,value
2023-01-29T00:00:11.890Z,0.90
2023-01-29T00:02:39.134Z,0.90
2023-01-29T00:05:25.923Z,1.00
2023-01-29T00:08:02.507Z,0.90
2023-01-29T00:10:30.363Z,0.80
2023-01-29T00:12:57.616Z,1.00
2023-01-29T00:15:25.221Z,1.10
2023-01-29T00:17:52.821Z,1.00
2023-01-29T00:20:26.274Z,1.00
2023-01-29T00:22:54.003Z,0.90
2023-01-29T00:25:21.232Z,1.00
2023-01-29T00:27:50.546Z,1.00
2023-01-29T00:30:21.483Z,0.90
2023-01-29T00:32:49.138Z,1.10
2023-01-29T00:35:16.371Z,1.10
2023-01-29T00:37:46.117Z,1.00
2023-01-29T00:40:13.993Z,1.00
2023-01-29T00:43:00.021Z,1.00
2023-01-29T00:45:27.136Z,0.90
2023-01-29T00:47:57.038Z,1.00
2023-01-29T00:50:24.291Z,1.20
2023-01-29T00:52:52.971Z,0.90
2023-01-29T00:55:20.789Z,1.00
2023-01-29T00:57:48.110Z,1.00
2023-01-29T01:00:20.034Z,1.10
2023-01-29T01:03:08.679Z,0.90
2023-01-29T01:05:37.198Z,0.90
2023-01-29T01:08:24.879Z,1.00
2023-01-29T01:11:03.497Z,1.00
2023-01-29T01:13:33.525Z,0.80
2023-01-29T01:16:00.983Z,0.90
2023-01-29T01:18:31.863Z,1.00
2023-01-29T01:21:10.305Z,0.90
2023-01-29T01:23:38.530Z,0.90
2023-01-29T01:26:10.012Z,1.00
2023-01-29T01:28:39.719Z,1.00
2023-01-29T01:31:14.603Z,1.00
2023-01-29T01:33:42.485Z,0.80
2023-01-29T01:36:09.949Z,0.90
2023-01-29T01:38:46.689Z,0.90
2023-01-29T01:41:20.412Z,0.90
2023-01-29T01:44:02.650Z,1.20
2023-01-29T01:46:35.504Z,1.10
2023-01-29T01:49:16.377Z,1.00
2023-01-29T01:51:52.425Z,1.00
2023-01-29T01:54:27.358Z,1.10
2023-01-29T01:57:09.183Z,1.30
2023-01-29T01:59:41.846Z,1.10
2023-01-29T02:02:28.124Z,1.20
2023-01-29T02:05:14.243Z,1.20
2023-01-29T02:08:07.349Z,1.20
2023-01-29T02:10:53.509Z,0.90
2023-01-29T02:13:21.901Z,1.10
2023-01-29T02:15:50.761Z,1.10
2023-01-29T02:18:20.638Z,1.30
2023-01-29T02:21:02.922Z,1.30
2023-01-29T02:24:10.642Z,1.10
2023-01-29T02:26:43.578Z,1.20
2023-01-29T02:29:27.227Z,1.20
2023-01-29T02:32:33.044Z,1.10
2023-01-29T02:35:30.859Z,1.10
2023-01-29T02:38:11.019Z,1.20
2023-01-29T02:40:53.878Z,1.20
2023-01-29T02:43:27.964Z,1.20
2023-01-29T02:46:22.032Z,1.30
2023-01-29T02:48:54.532Z,1.50
2023-01-29T02:51:31.775Z,1.30
2023-01-29T02:54:13.736Z,1.40
2023-01-29T02:56:55.949Z,1.20
2023-01-29T02:59:43.595Z,1.50
2023-01-29T03:02:19.231Z,1.50
2023-01-29T03:04:55.499Z,1.40
2023-01-29T03:07:42.528Z,1.50
2023-01-29T03:10:38.516Z,1.40
2023-01-29T03:13:26.189Z,1.50
2023-01-29T03:16:01.941Z,1.50
2023-01-29T03:18:35.647Z,1.70
2023-01-29T03:21:28.584Z,1.50
2023-01-29T03:24:18.091Z,1.70
2023-01-29T03:27:04.052Z,1.60
2023-01-29T03:29:52.606Z,1.80
2023-01-29T03:32:24.169Z,1.70
2023-01-29T03:34:58.567Z,1.60
2023-01-29T03:37:55.883Z,1.90
2023-01-29T03:40:22.993Z,1.80
2023-01-29T03:43:07.866Z,1.70
2023-01-29T03:45:52.372Z,1.90
2023-01-29T03:48:25.878Z,1.70
2023-01-29T03:51:33.764Z,1.60
2023-01-29T03:54:26.938Z,1.70
2023-01-29T03:57:15.670Z,1.70
2023-01-29T03:59:55.664Z,1.80
2023-01-29T04:02:30.255Z,1.80
2023-01-29T04:05:02.190Z,1.80
2023-01-29T04:07:33.679Z,1.80
2023-01-29T04:10:08.534Z,1.90
2023-01-29T04:13:01.392Z,1.80
2023-01-29T04:15:35.654Z,2.00
2023-01-29T04:18:12.677Z,1.80
2023-01-29T04:20:40.719Z,2.00
2023-01-29T04:23:18.899Z,1.80
2023-01-29T04:25:53.488Z,1.80
2023-01-29T04:28:35.179Z,1.90
2023-01-29T04:31:08.621Z,1.90
2023-01-29T04:33:49.479Z,2.00
2023-01-29T04:36:53.529Z,2.10
2023-01-29T04:39:40.769Z,2.00
2023-01-29T04:42:34.366Z,2.00
2023-01-29T04:45:10.214Z,2.10
2023-01-29T04:47:41.990Z,2.00
2023-01-29T04:50:32.005Z,1.90
2023-01-29T04:52:59.187Z,1.90
2023-01-29T04:55:40.534Z,1.90
2023-01-29T04:58:21.174Z,2.10
2023-01-29T05:00:54.041Z,2.10
2023-01-29T05:03:25.259Z,2.00
2023-01-29T05:05:54.292Z,2.10
2023-01-29T05:08:24.309Z,2.20
2023-01-29T05:10:55.080Z,2.20
2023-01-29T05:13:25.298Z,2.10
2023-01-29T05:15:57.970Z,2.20
2023-01-29T05:18:31.577Z,2.20
2023-01-29T05:21:04.297Z,2.30
2023-01-29T05:23:32.044Z,2.10
2023-01-29T05:26:00.176Z,2.00
2023-01-29T05:28:27.866Z,2.20
2023-01-29T05:30:58.216Z,2.20
2023-01-29T05:33:30.886Z,2.40
2023-01-29T05:36:01.757Z,2.30
2023-01-29T05:38:28.970Z,2.40
2023-01-29T05:40:59.602Z,2.30
2023-01-29T05:43:27.914Z,2.30
2023-01-29T05:46:03.569Z,2.20
2023-01-29T05:48:33.403Z,2.30
2023-01-29T05:51:04.834Z,2.40
2023-01-29T05:53:33.353Z,2.30
2023-01-29T05:56:05.497Z,2.30
2023-01-29T05:58:33.846Z,2.60
2023-01-29T06:01:15.336Z,2.30
2023-01-29T06:03:42.705Z,2.50
2023-01-29T06:06:15.347Z,2.30
2023-01-29T06:08:52.281Z,2.50
2023-01-29T06:11:19.516Z,2.40
2023-01-29T06:13:48.415Z,2.60
2023-01-29T06:16:17.455Z,2.40
2023-01-29T06:18:48.330Z,2.50
2023-01-29T06:21:20.807Z,2.70
2023-01-29T06:23:48.359Z,2.60
2023-01-29T06:26:19.132Z,2.30
2023-01-29T06:28:53.946Z,2.50
2023-01-29T06:31:37.278Z,2.50
2023-01-29T06:34:06.164Z,2.50
2023-01-29T06:36:35.592Z,2.50
2023-01-29T06:39:04.149Z,2.60
2023-01-29T06:41:31.402Z,2.40
2023-01-29T06:43:58.955Z,2.40
2023-01-29T06:46:26.492Z,2.70
2023-01-29T06:48:53.861Z,2.70
2023-01-29T06:51:23.666Z,2.60
2023-01-29T06:53:51.014Z,2.70
2023-01-29T06:56:18.724Z,2.70
2023-01-29T06:58:46.691Z,2.60
2023-01-29T07:01:29.337Z,2.70
2023-01-29T07:04:02.442Z,2.80
2023-01-29T07:06:31.869Z,2.60
2023-01-29T07:09:00.571Z,2.60
2023-01-29T07:11:27.687Z,2.90
2023-01-29T07:13:55.453Z,2.70
2023-01-29T07:16:23.578Z,2.90
2023-01-29T07:18:51.447Z,2.80
2023-01-29T07:21:18.628Z,3.10
2023-01-29T07:23:45.706Z,3.00
2023-01-29T07:26:13.193Z,2.70
2023-01-29T07:28:41.345Z,2.90
2023-01-29T07:31:12.585Z,2.90
2023-01-29T07:33:39.787Z,2.90
2023-01-29T07:36:12.426Z,2.80
2023-01-29T07:38:40.138Z,3.00
2023-01-29T07:41:12.779Z,3.00
2023-01-29T07:43:43.114Z,2.80
2023-01-29T07:46:12.229Z,3.00
2023-01-29T07:48:39.564Z,3.00
2023-01-29T07:51:18.310Z,3.00
2023-01-29T07:53:50.202Z,3.10
2023-01-29T07:56:17.300Z,2.90
2023-01-29T07:58:44.989Z,3.00
2023-01-29T08:01:12.879Z,3.00
2023-01-29T08:03:40.092Z,3.20
2023-01-29T08:06:07.759Z,3.00
2023-01-29T08:08:35.099Z,3.10
2023-01-29T08:11:04.190Z,3.30
2023-01-29T08:13:33.002Z,3.20
2023-01-29T08:16:02.317Z,3.40
2023-01-29T08:18:31.711Z,3.30
2023-01-29T08:21:02.702Z,3.30
2023-01-29T08:23:31.076Z,3.40
2023-01-29T08:25:58.921Z,3.30
2023-01-29T08:28:26.332Z,3.30
2023-01-29T08:30:53.932Z,3.40
2023-01-29T08:33:38.056Z,3.20
2023-01-29T08:36:09.643Z,3.30
2023-01-29T08:38:39.540Z,3.30
2023-01-29T08:41:07.937Z,3.40
2023-01-29T08:43:39.734Z,3.40
2023-01-29T08:46:08.350Z,3.50
2023-01-29T08:48:36.442Z,3.60
2023-01-29T08:51:04.757Z,3.30
2023-01-29T08:53:34.645Z,3.70
2023-01-29T08:56:02.264Z,3.70
2023-01-29T08:58:29.759Z,3.80
2023-01-29T09:00:57.454Z,3.80
2023-01-29T09:03:24.682Z,3.70
2023-01-29T09:05:52.643Z,3.90
2023-01-29T09:08:20.076Z,3.70
2023-01-29T09:10:50.136Z,3.60
2023-01-29T09:13:17.706Z,3.90
2023-01-29T09:15:45.124Z,3.90
2023-01-29T09:18:12.274Z,4.10
2023-01-29T09:20:45.447Z,4.00
2023-01-29T09:23:13.704Z,4.10
2023-01-29T09:25:43.329Z,4.20
2023-01-29T09:28:31.199Z,4.20
2023-01-29T09:31:02.621Z,4.20
2023-01-29T09:33:31.216Z,4.10
2023-01-29T09:36:06.266Z,4.10
2023-01-29T09:38:33.431Z,4.10
2023-01-29T09:41:25.969Z,4.30
2023-01-29T09:44:01.120Z,4.10
2023-01-29T09:46:44.889Z,4.30
2023-01-29T09:49:37.868Z,4.20
2023-01-29T09:52:42.646Z,4.30
2023-01-29T09:55:30.158Z,4.30
2023-01-29T09:58:21.978Z,4.20
2023-01-29T10:00:59.756Z,4.30
2023-01-29T10:03:46.560Z,4.30
2023-01-29T10:06:42.870Z,4.50
2023-01-29T10:09:37.255Z,4.40
2023-01-29T10:12:23.440Z,4.40
2023-01-29T10:15:21.931Z,4.60
2023-01-29T10:18:18.877Z,4.50
2023-01-29T10:21:04.975Z,4.40
2023-01-29T10:23:35.014Z,4.40
2023-01-29T10:26:02.298Z,4.50
2023-01-29T10:28:46.683Z,4.60
2023-01-29T10:31:13.949Z,4.60
2023-01-29T10:33:49.065Z,4.60
2023-01-29T10:36:38.979Z,4.60
2023-01-29T10:39:06.224Z,4.70
2023-01-29T10:41:53.113Z,4.50
2023-01-29T10:44:29.648Z,4.50
2023-01-29T10:47:38.574Z,4.40
2023-01-29T10:50:37.153Z,4.50
2023-01-29T10:53:22.654Z,4.60
2023-01-29T10:56:22.345Z,4.50
2023-01-29T10:59:00.097Z,4.80
2023-01-29T11:01:27.565Z,4.60
2023-01-29T11:04:01.317Z,4.70
2023-01-29T11:06:34.937Z,4.80
2023-01-29T11:09:36.135Z,4.80
2023-01-29T11:12:20.910Z,4.90
2023-01-29T11:14:54.569Z,4.90
2023-01-29T11:17:24.749Z,4.90
2023-01-29T11:19:55.930Z,4.90
2023-01-29T11:22:34.537Z,4.90
2023-01-29T11:25:24.088Z,4.90
2023-01-29T11:28:03.154Z,4.80
2023-01-29T11:30:41.983Z,4.70
2023-01-29T11:33:28.792Z,4.70
2023-01-29T11:35:59.927Z,4.70
2023-01-29T11:38:33.667Z,4.70
2023-01-29T11:41:14.796Z,4.60
2023-01-29T11:43:42.763Z,4.60
2023-01-29T11:46:15.608Z,4.60
2023-01-29T11:48:48.686Z,4.50
2023-01-29T11:51:30.170Z,4.60
2023-01-29T11:54:02.460Z,4.50
2023-01-29T11:56:41.346Z,4.60
2023-01-29T11:59:37.519Z,4.50
2023-01-29T12:02:23.568Z,4.60
2023-01-29T12:04:51.372Z,4.50
2023-01-29T12:07:22.377Z,4.60
2023-01-29T12:09:55.224Z,4.40
2023-01-29T12:12:42.209Z,4.60
2023-01-29T12:15:17.994Z,4.60
2023-01-29T12:18:04.018Z,4.80
2023-01-29T12:20:45.920Z,4.70
2023-01-29T12:23:32.696Z,4.80
2023-01-29T12:26:09.619Z,4.70
2023-01-29T12:29:03.294Z,4.60
2023-01-29T12:31:49.944Z,4.70
2023-01-29T12:34:20.325Z,4.60
2023-01-29T12:37:19.942Z,4.50
2023-01-29T12:39:48.172Z,4.70
2023-01-29T12:42:25.852Z,4.60
2023-01-29T12:45:01.219Z,4.60
2023-01-29T12:47:37.653Z,4.70
2023-01-29T12:50:29.775Z,4.50
2023-01-29T12:53:00.855Z,4.70
2023-01-29T12:55:45.973Z,4.40
2023-01-29T12:58:28.773Z,4.60
2023-01-29T13:01:04.109Z,4.80
2023-01-29T13:03:46.965Z,4.70
2023-01-29T13:06:21.478Z,4.80
2023-01-29T13:09:03.529Z,4.70
2023-01-29T13:11:35.009Z,4.60
2023-01-29T13:14:16.941Z,4.90
2023-01-29T13:16:47.805Z,4.50
2023-01-29T13:19:21.850Z,4.70
2023-01-29T13:21:51.345Z,4.80
2023-01-29T13:24:23.513Z,4.90
2023-01-29T13:26:52.617Z,4.80
2023-01-29T13:29:32.184Z,5.00
2023-01-29T13:32:02.786Z,4.80
2023-01-29T13:34:44.416Z,5.00
2023-01-29T13:37:18.702Z,4.80
2023-01-29T13:39:54.464Z,4.70
2023-01-29T13:42:28.251Z,4.80
2023-01-29T13:44:58.251Z,4.90
2023-01-29T13:47:27.372Z,4.90
2023-01-29T13:50:02.894Z,4.70
2023-01-29T13:52:32.244Z,4.80
2023-01-29T13:55:20.898Z,4.60
2023-01-29T13:57:56.423Z,4.60
2023-01-29T14:00:31.063Z,4.50
2023-01-29T14:03:04.873Z,4.80
2023-01-29T14:05:32.821Z,4.70
2023-01-29T14:08:09.094Z,4.60
2023-01-29T14:10:40.020Z,4.60
2023-01-29T14:13:19.398Z,4.60
2023-01-29T14:16:15.119Z,4.50
2023-01-29T14:19:17.835Z,4.30
2023-01-29T14:21:51.635Z,4.10
2023-01-29T14:24:22.728Z,4.40
2023-01-29T14:26:55.719Z,4.20
2023-01-29T14:29:34.750Z,4.10
2023-01-29T14:32:09.720Z,4.20
2023-01-29T14:34:50.389Z,4.20
2023-01-29T14:37:19.302Z,4.20
2023-01-29T14:39:55.228Z,4.20
2023-01-29T14:42:56.555Z,4.30
2023-01-29T14:45:46.318Z,4.30
2023-01-29T14:48:39.673Z,4.10
2023-01-29T14:51:13.436Z,4.40
2023-01-29T14:54:04.264Z,4.20
2023-01-29T14:56:58.525Z,4.10
2023-01-29T14:59:44.268Z,4.30
2023-01-29T15:02:38.138Z,4.20
2023-01-29T15:05:12.653Z,4.30
2023-01-29T15:08:04.323Z,4.10
2023-01-29T15:11:12.979Z,4.20
2023-01-29T15:14:15.430Z,4.20
2023-01-29T15:17:03.264Z,4.10
2023-01-29T15:19:37.138Z,4.30
2023-01-29T15:22:18.370Z,4.30
2023-01-29T15:25:04.984Z,4.30
2023-01-29T15:27:33.048Z,4.20
2023-01-29T15:30:08.318Z,4.40
2023-01-29T15:32:43.408Z,4.30
2023-01-29T15:35:38.853Z,4.20
2023-01-29T15:38:16.004Z,4.20
2023-01-29T15:41:02.152Z,4.20
2023-01-29T15:43:37.355Z,3.90
2023-01-29T15:46:11.498Z,4.10
2023-01-29T15:48:41.849Z,4.20
2023-01-29T15:51:12.085Z,4.10
2023-01-29T15:53:47.194Z,3.90
2023-01-29T15:56:19.806Z,3.70
2023-01-29T15:58:49.606Z,4.00
2023-01-29T16:01:17.468Z,3.90
2023-01-29T16:03:48.153Z,3.80
2023-01-29T16:06:15.733Z,4.00
2023-01-29T16:08:47.208Z,4.00
2023-01-29T16:11:16.522Z,3.90
2023-01-29T16:13:44.908Z,3.90
2023-01-29T16:16:15.004Z,3.80
2023-01-29T16:18:59.557Z,3.90
2023-01-29T16:21:38.299Z,3.90
2023-01-29T16:24:14.719Z,3.80
2023-01-29T16:26:47.774Z,3.70
2023-01-29T16:29:30.058Z,4.00
2023-01-29T16:32:04.485Z,3.90
2023-01-29T16:34:44.416Z,3.90
2023-01-29T16:37:32.577Z,3.80
2023-01-29T16:40:26.263Z,3.90
2023-01-29T16:43:42.008Z,4.00
2023-01-29T16:46:42.874Z,4.00
2023-01-29T16:49:39.114Z,4.00
2023-01-29T16:52:30.245Z,3.90
2023-01-29T16:55:32.268Z,4.00
2023-01-29T16:58:05.064Z,4.00
2023-01-29T17:00:32.285Z,3.90
2023-01-29T17:03:08.158Z,4.00
2023-01-29T17:05:38.012Z,3.90
2023-01-29T17:08:07.106Z,3.90
2023-01-29T17:10:34.928Z,3.90
2023-01-29T17:13:11.190Z,3.90
2023-01-29T17:15:48.076Z,4.00
2023-01-29T17:18:25.393Z,4.10
2023-01-29T17:20:53.147Z,4.10
2023-01-29T17:23:20.556Z,4.00
2023-01-29T17:25:52.047Z,4.20
2023-01-29T17:28:19.706Z,4.00
2023-01-29T17:31:05.001Z,4.10
2023-01-29T17:33:32.887Z,4.10
2023-01-29T17:36:03.480Z,4.00
2023-01-29T17:38:30.874Z,4.00
2023-01-29T17:41:24.015Z,4.00
2023-01-29T17:43:51.846Z,3.90
2023-01-29T17:46:20.466Z,3.90
2023-01-29T17:48:49.443Z,3.90
2023-01-29T17:51:18.092Z,4.00
2023-01-29T17:53:47.843Z,3.90
2023-01-29T17:56:23.650Z,4.00
2023-01-29T17:58:51.141Z,3.70
2023-01-29T18:01:18.292Z,3.90
2023-01-29T18:03:46.966Z,4.00
2023-01-29T18:06:29.503Z,4.00
2023-01-29T18:09:00.065Z,3.90
2023-01-29T18:11:28.228Z,4.00
2023-01-29T18:13:57.213Z,4.00
2023-01-29T18:16:25.708Z,4.10
2023-01-29T18:18:53.291Z,4.00
2023-01-29T18:21:23.262Z,4.00
2023-01-29T18:23:52.889Z,4.20
2023-01-29T18:26:20.128Z,4.00
2023-01-29T18:28:47.145Z,3.90
2023-01-29T18:31:14.598Z,4.20
2023-01-29T18:33:42.148Z,4.20
2023-01-29T18:36:09.814Z,4.00
2023-01-29T18:38:37.075Z,4.10
2023-01-29T18:41:06.823Z,4.10
2023-01-29T18:43:46.651Z,4.20
2023-01-29T18:46:14.163Z,4.20
2023-01-29T18:48:42.778Z,4.10
2023-01-29T18:51:10.100Z,4.00
2023-01-29T18:53:40.349Z,4.20
2023-01-29T18:56:11.234Z,4.20
2023-01-29T18:58:38.821Z,4.00
2023-01-29T19:01:10.097Z,4.10
2023-01-29T19:03:39.630Z,4.10
2023-01-29T19:06:08.518Z,4.30
2023-01-29T19:08:38.309Z,4.10
2023-01-29T19:11:09.326Z,4.20
2023-01-29T19:13:38.682Z,4.10
2023-01-29T19:16:10.589Z,3.90
2023-01-29T19:18:38.949Z,4.10
2023-01-29T19:21:12.255Z,4.20
2023-01-29T19:23:40.554Z,4.10
2023-01-29T19:26:15.706Z,4.00
2023-01-29T19:28:43.066Z,4.10
2023-01-29T19:31:11.106Z,4.10
2023-01-29T19:33:39.219Z,4.20
2023-01-29T19:36:12.290Z,4.20
2023-01-29T19:38:40.080Z,4.10
2023-01-29T19:41:13.084Z,4.10
2023-01-29T19:43:43.199Z,4.00
2023-01-29T19:46:11.080Z,4.10
2023-01-29T19:48:38.443Z,3.90
2023-01-29T19:51:09.225Z,4.00
2023-01-29T19:53:38.362Z,4.10
2023-01-29T19:56:08.470Z,4.00
2023-01-29T19:58:36.947Z,4.10
2023-01-29T20:01:08.041Z,4.10
2023-01-29T20:03:35.412Z,4.20
2023-01-29T20:06:04.325Z,4.20
2023-01-29T20:08:34.773Z,4.20
2023-01-29T20:11:02.291Z,4.10
2023-01-29T20:13:31.744Z,4.10
2023-01-29T20:16:03.217Z,4.00
2023-01-29T20:18:33.201Z,3.80
2023-01-29T20:21:10.029Z,4.00
2023-01-29T20:23:45.846Z,4.00
2023-01-29T20:26:17.104Z,4.10
2023-01-29T20:28:46.953Z,4.20
2023-01-29T20:31:16.579Z,4.10
2023-01-29T20:33:44.568Z,4.00
2023-01-29T20:36:13.481Z,4.20
2023-01-29T20:39:01.045Z,4.00
2023-01-29T20:41:29.459Z,4.00
2023-01-29T20:43:59.831Z,4.20
2023-01-29T20:46:27.448Z,4.10
2023-01-29T20:48:55.851Z,4.10
2023-01-29T20:51:23.547Z,4.10
2023-01-29T20:53:52.305Z,4.00
2023-01-29T20:56:32.229Z,4.20
2023-01-29T20:59:07.707Z,4.20
2023-01-29T21:01:37.628Z,4.30
2023-01-29T21:04:05.061Z,4.20
2023-01-29T21:06:35.375Z,4.30
2023-01-29T21:09:02.490Z,4.10
2023-01-29T21:11:29.735Z,4.00
2023-01-29T21:13:57.995Z,4.10
2023-01-29T21:16:28.540Z,4.10
2023-01-29T21:18:59.229Z,4.20
2023-01-29T21:21:26.951Z,4.20
2023-01-29T21:23:58.163Z,4.20
2023-01-29T21:26:25.999Z,4.10
2023-01-29T21:28:53.641Z,4.10
2023-01-29T21:31:23.239Z,4.20
2023-01-29T21:33:53.410Z,4.30
2023-01-29T21:36:20.610Z,4.30
2023-01-29T21:38:48.281Z,4.30
2023-01-29T21:41:21.408Z,4.40
2023-01-29T21:43:51.998Z,4.30
2023-01-29T21:46:19.267Z,4.30
2023-01-29T21:48:46.808Z,4.50
2023-01-29T21:51:14.092Z,4.50
2023-01-29T21:53:41.365Z,4.50
2023-01-29T21:56:14.458Z,4.40
2023-01-29T21:58:41.786Z,4.60
2023-01-29T22:01:18.420Z,4.40
2023-01-29T22:03:57.508Z,4.30
2023-01-29T22:06:28.782Z,4.30
2023-01-29T22:08:55.901Z,4.40
2023-01-29T22:11:23.212Z,4.40
2023-01-29T22:13:56.500Z,4.40
2023-01-29T22:16:26.119Z,4.40
2023-01-29T22:18:53.740Z,4.30
2023-01-29T22:21:21.201Z,4.50
2023-01-29T22:23:49.644Z,4.50
2023-01-29T22:26:17.465Z,4.50
2023-01-29T22:28:44.773Z,4.40
2023-01-29T22:31:12.567Z,4.30
2023-01-29T22:33:39.766Z,4.40
2023-01-29T22:36:10.833Z,4.50
2023-01-29T22:38:38.417Z,4.40
2023-01-29T22:41:05.611Z,4.50
2023-01-29T22:43:32.828Z,4.20
2023-01-29T22:46:00.949Z,4.40
2023-01-29T22:48:30.784Z,4.30
2023-01-29T22:51:12.308Z,4.40
2023-01-29T22:53:43.457Z,4.30
2023-01-29T22:56:15.187Z,4.50
2023-01-29T22:58:44.746Z,4.50
2023-01-29T23:01:14.419Z,4.50
2023-01-29T23:03:41.664Z,4.50
2023-01-29T23:06:08.888Z,4.60
2023-01-29T23:08:36.276Z,4.60
2023-01-29T23:11:14.910Z,4.50
2023-01-29T23:13:46.333Z,4.60
2023-01-29T23:16:15.025Z,4.60
2023-01-29T23:18:44.456Z,4.50
2023-01-29T23:21:15.079Z,4.70
2023-01-29T23:23:44.944Z,4.60
2023-01-29T23:26:33.123Z,4.80
2023-01-29T23:29:00.822Z,4.80
2023-01-29T23:31:28.905Z,4.70
2023-01-29T23:33:56.092Z,4.80
2023-01-29T23:36:23.724Z,4.80
2023-01-29T23:38:57.069Z,4.70
2023-01-29T23:41:24.802Z,4.80
2023-01-29T23:43:52.886Z,4.80
2023-01-29T23:46:22.279Z,4.80
2023-01-29T23:48:49.555Z,4.90
2023-01-29T23:51:16.918Z,4.80
2023-01-29T23:53:44.263Z,4.90
2023-01-29T23:56:14.883Z,4.90
2023-01-29T23:58:42.874Z,4.90
